Time;durP1;ratioP1;P1;durP2;ratioP2;P2;SDS_P1;SDS_P2;PMS_P1;PMS_P2;Temp;Humidity;BMP_temperature;BMP_pressure;BME280_temperature;BME280_humidity;BME280_pressure;Samples;Min_cycle;Max_cycle;Signal;HPM_P1;HPM_P2
2022/10/29 00:02:00;;;;;;;27.35;12.18;;;;;;;13.38;100.00;101965.88;5042431;28;20029;-67
2022/10/29 00:04:26;;;;;;;26.15;11.90;;;;;;;13.35;100.00;101964.94;5043479;28;20076;-67
2022/10/29 00:06:51;;;;;;;26.48;12.55;;;;;;;13.29;100.00;101959.53;5043543;28;20024;-67
2022/10/29 00:09:16;;;;;;;26.13;12.27;;;;;;;13.21;100.00;101952.38;5041933;28;20021;-67
2022/10/29 00:11:42;;;;;;;26.52;13.10;;;;;;;13.15;100.00;101947.00;5044962;28;20041;-67
2022/10/29 00:14:07;;;;;;;28.98;13.48;;;;;;;13.11;100.00;101949.63;5040928;28;20045;-66
2022/10/29 00:16:38;;;;;;;25.02;12.50;;;;;;;13.02;100.00;101939.78;5043922;28;20028;-67
2022/10/29 00:19:03;;;;;;;28.70;13.10;;;;;;;12.94;100.00;101942.31;5041643;28;20026;-67
2022/10/29 00:21:29;;;;;;;28.33;11.85;;;;;;;12.83;100.00;101944.88;5043243;28;20381;-67
2022/10/29 00:23:56;;;;;;;24.50;11.75;;;;;;;12.80;100.00;101950.13;5042849;28;20016;-67
2022/10/29 00:26:22;;;;;;;27.42;12.40;;;;;;;12.78;100.00;101948.31;5042439;28;20026;-67
2022/10/29 00:28:51;;;;;;;29.52;13.13;;;;;;;12.76;100.00;101953.63;5044190;28;20036;-67
2022/10/29 00:31:18;;;;;;;30.00;14.00;;;;;;;12.81;100.00;101951.00;5040400;28;20037;-65
2022/10/29 00:33:44;;;;;;;24.20;11.80;;;;;;;12.80;100.00;101954.53;5044193;28;20384;-66
2022/10/29 00:36:13;;;;;;;26.35;12.18;;;;;;;12.88;100.00;101958.19;5041226;28;20021;-65
2022/10/29 00:38:38;;;;;;;26.40;12.60;;;;;;;12.90;100.00;101961.72;5035609;28;20026;-65
2022/10/29 00:41:05;;;;;;;27.02;12.55;;;;;;;12.88;100.00;101952.88;5043924;28;20036;-65
2022/10/29 00:43:36;;;;;;;28.02;12.70;;;;;;;12.85;100.00;101955.50;5041958;28;20031;-65
2022/10/29 00:46:15;;;;;;;25.20;11.68;;;;;;;12.81;100.00;101951.00;5043539;28;20030;-65
2022/10/29 00:48:47;;;;;;;25.73;12.30;;;;;;;12.80;100.00;101963.41;5037316;28;20029;-65
2022/10/29 00:51:15;;;;;;;27.52;11.43;;;;;;;12.78;100.00;101970.44;5037508;28;20435;-65
2022/10/29 00:53:49;;;;;;;25.63;11.70;;;;;;;12.81;100.00;101964.28;5036834;28;20400;-66
2022/10/29 00:56:15;;;;;;;27.38;11.90;;;;;;;12.86;100.00;101966.13;5037945;28;20043;-66
2022/10/29 00:58:41;;;;;;;24.25;12.45;;;;;;;12.95;100.00;101961.81;5044136;28;20025;-65
2022/10/29 01:01:07;;;;;;;27.50;12.18;;;;;;;12.88;100.00;101959.06;5040939;28;20034;-65
2022/10/29 01:03:33;;;;;;;25.65;12.27;;;;;;;12.82;100.00;101963.41;5043422;28;20492;-66
2022/10/29 01:06:00;;;;;;;25.35;12.60;;;;;;;12.73;100.00;101958.88;5041834;28;20025;-65
2022/10/29 01:08:26;;;;;;;27.90;12.68;;;;;;;12.63;100.00;101957.84;5042596;28;20017;-65
2022/10/29 01:11:03;;;;;;;24.67;11.95;;;;;;;12.53;100.00;101956.84;5043208;28;20024;-65
2022/10/29 01:13:35;;;;;;;25.10;11.93;;;;;;;12.39;100.00;101950.44;5043123;28;20395;-65
2022/10/29 01:16:06;;;;;;;26.93;12.50;;;;;;;12.36;100.00;101942.44;5041589;28;20025;-66
2022/10/29 01:18:44;;;;;;;29.50;12.55;;;;;;;12.33;100.00;101937.09;5043070;28;20322;-65
2022/10/29 01:21:36;;;;;;;28.02;12.98;;;;;;;12.31;100.00;101928.25;5036523;28;20496;-65
2022/10/29 01:24:39;;;;;;;25.90;12.88;;;;;;;12.24;100.00;101926.38;5042130;28;20033;-66
2022/10/29 01:27:31;;;;;;;24.13;11.40;;;;;;;12.18;100.00;101936.00;5045538;28;20128;-65
2022/10/29 01:30:05;;;;;;;22.75;10.80;;;;;;;12.16;100.00;101939.53;5044748;28;20026;-65
2022/10/29 01:32:43;;;;;;;25.80;10.70;;;;;;;12.18;100.00;101938.66;5045179;28;20463;-65
2022/10/29 01:35:23;;;;;;;24.65;10.80;;;;;;;12.17;100.00;101931.59;5040122;28;20476;-66
2022/10/29 01:38:10;;;;;;;23.92;10.20;;;;;;;12.14;100.00;101926.22;5042135;28;20492;-65
2022/10/29 01:40:45;;;;;;;24.95;10.80;;;;;;;12.14;100.00;101920.91;5044722;28;20033;-65
2022/10/29 01:43:39;;;;;;;25.00;11.23;;;;;;;12.10;100.00;101920.84;5040228;28;20033;-67
2022/10/29 01:46:17;;;;;;;24.10;11.10;;;;;;;12.00;100.00;101910.13;5046054;28;20041;-67
2022/10/29 01:48:46;;;;;;;23.00;10.30;;;;;;;11.97;100.00;101903.88;5040753;28;20089;-67
2022/10/29 01:51:19;;;;;;;26.30;10.90;;;;;;;11.92;100.00;101908.19;5040382;28;20104;-68
2022/10/29 01:53:45;;;;;;;22.20;10.05;;;;;;;11.86;100.00;101893.97;5040700;28;20536;-67
2022/10/29 01:56:10;;;;;;;25.60;10.43;;;;;;;11.86;100.00;101888.66;5047210;28;20120;-67
2022/10/29 01:58:36;;;;;;;24.40;11.05;;;;;;;11.91;100.00;101893.16;5044337;28;20072;-67
2022/10/29 02:01:10;;;;;;;23.73;10.05;;;;;;;11.83;100.00;101893.91;5046425;28;20104;-67
2022/10/29 02:03:55;;;;;;;24.65;9.70;;;;;;;11.75;100.00;101892.00;5044045;28;20017;-67
2022/10/29 02:06:46;;;;;;;26.50;11.00;;;;;;;11.71;100.00;101893.75;5042269;28;20033;-67
2022/10/29 02:09:27;;;;;;;24.25;10.20;;;;;;;11.65;100.00;101891.00;5039910;28;20048;-67
2022/10/29 02:12:19;;;;;;;24.10;10.90;;;;;;;11.60;100.00;101896.19;5042565;28;20026;-67
2022/10/29 02:14:52;;;;;;;24.27;10.90;;;;;;;11.64;100.00;101895.38;5040166;28;20112;-67
2022/10/29 02:17:18;;;;;;;27.50;12.48;;;;;;;11.61;100.00;101889.16;5045942;28;20058;-67
2022/10/29 02:19:43;;;;;;;24.02;10.90;;;;;;;11.61;100.00;101881.22;5043600;28;20021;-67
2022/10/29 02:22:09;;;;;;;23.95;10.25;;;;;;;11.55;100.00;101875.78;5039649;28;20384;-67
2022/10/29 02:24:34;;;;;;;23.30;10.98;;;;;;;11.60;100.00;101880.28;5046299;28;20025;-67
2022/10/29 02:26:59;;;;;;;23.02;10.27;;;;;;;11.56;100.00;101878.47;5044992;28;20028;-67
2022/10/29 02:29:25;;;;;;;22.77;10.10;;;;;;;11.55;100.00;101881.09;5044966;28;20505;-67
2022/10/29 02:31:50;;;;;;;23.67;10.05;;;;;;;11.51;100.00;101880.16;5045579;28;20079;-66
2022/10/29 02:34:15;;;;;;;24.20;10.10;;;;;;;11.49;100.00;101874.84;5043678;28;20026;-65
2022/10/29 02:36:41;;;;;;;23.15;10.10;;;;;;;11.51;100.00;101870.44;5046410;28;20483;-65
2022/10/29 02:39:06;;;;;;;23.75;9.70;;;;;;;11.58;100.00;101859.97;5042638;28;20033;-65
2022/10/29 02:41:31;;;;;;;22.95;10.10;;;;;;;11.59;100.00;101864.38;5045426;28;20033;-66
2022/10/29 02:43:57;;;;;;;28.58;12.70;;;;;;;11.56;100.00;101859.03;5044528;28;20029;-65
2022/10/29 02:46:23;;;;;;;26.08;11.50;;;;;;;11.52;100.00;101860.75;5044208;28;20025;-65
2022/10/29 02:48:49;;;;;;;23.65;10.18;;;;;;;11.43;100.00;101852.66;5045716;28;20091;-65
2022/10/29 02:51:16;;;;;;;25.40;10.27;;;;;;;11.42;100.00;101857.06;5043040;28;20026;-65
2022/10/29 02:53:41;;;;;;;23.95;10.10;;;;;;;11.39;100.00;101856.09;5046092;28;20045;-65
2022/10/29 02:56:08;;;;;;;22.77;10.60;;;;;;;11.35;100.00;101852.53;5043118;28;20026;-65
2022/10/29 02:58:33;;;;;;;22.63;9.90;;;;;;;11.37;100.00;101861.38;5045263;28;20041;-66
2022/10/29 03:00:59;;;;;;;22.35;9.65;;;;;;;11.34;100.00;101853.38;5044210;28;20044;-65
2022/10/29 03:03:24;;;;;;;22.52;9.70;;;;;;;11.33;100.00;101854.28;5044267;28;20053;-65
2022/10/29 03:05:49;;;;;;;21.70;9.75;;;;;;;11.36;100.00;101845.47;5045273;28;20029;-65
2022/10/29 03:08:15;;;;;;;22.63;10.20;;;;;;;11.37;100.00;101842.84;5042799;28;20027;-65
2022/10/29 03:10:40;;;;;;;22.95;10.23;;;;;;;11.25;100.00;101850.59;5045822;28;20460;-66
2022/10/29 03:13:06;;;;;;;23.60;10.57;;;;;;;11.26;100.00;101847.09;5043036;28;20033;-65
2022/10/29 03:15:31;;;;;;;22.52;9.85;;;;;;;11.18;100.00;101854.00;5044996;28;20464;-65
2022/10/29 03:17:56;;;;;;;24.85;10.30;;;;;;;11.17;100.00;101847.81;5043956;28;20028;-65
2022/10/29 03:20:22;;;;;;;23.98;9.75;;;;;;;11.13;100.00;101846.84;5043020;28;20022;-65
2022/10/29 03:22:47;;;;;;;21.45;9.90;;;;;;;11.10;100.00;101838.88;5045441;28;20076;-65
2022/10/29 03:25:12;;;;;;;22.20;10.43;;;;;;;11.06;100.00;101838.78;5042206;28;20022;-65
2022/10/29 03:27:44;;;;;;;21.58;9.95;;;;;;;11.06;100.00;101837.00;5045372;28;20070;-67
2022/10/29 03:30:15;;;;;;;24.52;11.18;;;;;;;11.06;100.00;101831.72;5038220;28;20029;-67
2022/10/29 03:32:42;;;;;;;21.50;9.52;;;;;;;11.08;100.00;101827.38;5037978;28;20022;-67
2022/10/29 03:35:09;;;;;;;21.90;9.60;;;;;;;11.09;100.00;101823.84;5044901;28;20349;-67
2022/10/29 03:37:35;;;;;;;21.60;9.07;;;;;;;11.08;100.00;101824.72;5042744;28;20120;-67
2022/10/29 03:40:01;;;;;;;22.33;9.60;;;;;;;11.21;100.00;101822.28;5044216;28;20148;-67
2022/10/29 03:42:26;;;;;;;20.88;8.43;;;;;;;11.24;100.00;101812.66;5043727;28;20047;-68
2022/10/29 03:44:51;;;;;;;20.90;9.68;;;;;;;11.27;100.00;101814.44;5042789;28;20037;-67
2022/10/29 03:47:17;;;;;;;21.45;9.80;;;;;;;11.36;100.00;101821.63;5044847;28;20025;-67
2022/10/29 03:49:42;;;;;;;21.70;10.70;;;;;;;11.38;100.00;101820.81;5040520;28;20033;-67
2022/10/29 03:52:07;;;;;;;22.85;10.68;;;;;;;11.41;100.00;101819.97;5045155;28;20022;-67
2022/10/29 03:54:33;;;;;;;24.40;11.30;;;;;;;11.44;100.00;101818.25;5042205;28;20424;-67
2022/10/29 03:56:58;;;;;;;23.50;11.65;;;;;;;11.47;100.00;101815.66;5043373;28;20037;-67
2022/10/29 03:59:23;;;;;;;24.35;12.80;;;;;;;11.54;100.00;101803.41;5043963;28;20495;-67
2022/10/29 04:01:49;;;;;;;25.05;13.55;;;;;;;11.54;100.00;101794.59;5041991;28;20112;-67
2022/10/29 04:04:14;;;;;;;26.27;15.32;;;;;;;11.52;100.00;101792.78;5045065;28;20494;-67
2022/10/29 04:06:39;;;;;;;28.15;15.95;;;;;;;11.46;100.00;101782.13;5041504;28;20037;-67
2022/10/29 04:09:05;;;;;;;29.98;16.60;;;;;;;11.45;100.00;101782.09;5044320;28;20025;-67
2022/10/29 04:11:30;;;;;;;25.80;14.07;;;;;;;11.41;100.00;101778.50;5043081;28;20074;-67
2022/10/29 04:13:55;;;;;;;25.17;14.05;;;;;;;11.39;100.00;101780.25;5042630;28;20112;-67
2022/10/29 04:16:21;;;;;;;27.83;15.35;;;;;;;11.47;100.00;101783.88;5044122;28;20039;-67
2022/10/29 04:18:47;;;;;;;28.23;16.58;;;;;;;11.55;100.00;101785.75;5041425;28;20064;-68
2022/10/29 04:21:13;;;;;;;28.33;16.00;;;;;;;11.54;100.00;101776.06;5044345;28;20051;-69
2022/10/29 04:23:38;;;;;;;30.17;16.15;;;;;;;11.57;100.00;101765.50;5041567;28;20112;-68
2022/10/29 04:26:04;;;;;;;29.23;16.08;;;;;;;11.54;100.00;101768.09;5043806;28;20104;-69
2022/10/29 04:28:29;;;;;;;30.10;17.25;;;;;;;11.54;100.00;101774.28;5042537;28;20029;-68
2022/10/29 04:30:54;;;;;;;29.67;17.40;;;;;;;11.52;100.00;101774.25;5042239;28;20026;-69
2022/10/29 04:33:19;;;;;;;28.00;16.30;;;;;;;11.51;100.00;101764.53;5044000;28;20049;-69
2022/10/29 04:35:51;;;;;;;27.50;16.83;;;;;;;11.49;100.00;101765.41;5041021;28;20075;-69
2022/10/29 04:38:16;;;;;;;28.50;16.77;;;;;;;11.44;100.00;101759.13;5037896;28;20033;-69
2022/10/29 04:40:42;;;;;;;29.52;17.08;;;;;;;11.40;100.00;101757.28;5043379;28;20040;-68
2022/10/29 04:43:07;;;;;;;27.45;15.65;;;;;;;11.33;100.00;101762.50;5041234;28;20025;-68
2022/10/29 04:45:32;;;;;;;31.55;16.30;;;;;;;11.27;100.00;101767.69;5043398;28;20021;-69
2022/10/29 04:48:02;;;;;;;29.75;18.17;;;;;;;11.30;100.00;101778.34;5042755;28;20544;-69
2022/10/29 04:50:28;;;;;;;29.38;17.25;;;;;;;11.28;100.00;101772.09;5042341;28;20041;-69
2022/10/29 04:53:00;;;;;;;26.98;16.73;;;;;;;11.27;100.00;101774.72;5042951;28;20025;-67
2022/10/29 04:55:26;;;;;;;27.03;16.60;;;;;;;11.24;100.00;101780.91;5042006;28;20041;-69
2022/10/29 04:57:51;;;;;;;28.13;16.83;;;;;;;11.25;100.00;101768.53;5043427;28;20267;-69
2022/10/29 05:00:16;;;;;;;28.08;16.52;;;;;;;11.25;100.00;101768.53;5040689;28;20553;-68
2022/10/29 05:02:46;;;;;;;31.15;17.30;;;;;;;11.28;100.00;101765.94;5048446;28;20029;-65
2022/10/29 05:05:12;;;;;;;31.70;17.65;;;;;;;11.35;100.00;101762.53;5040821;28;20032;-65
2022/10/29 05:07:37;;;;;;;31.85;18.95;;;;;;;11.39;100.00;101763.44;5047835;28;20033;-65
2022/10/29 05:10:02;;;;;;;31.25;19.02;;;;;;;11.36;100.00;101755.47;5045865;28;20036;-65
2022/10/29 05:12:28;;;;;;;30.48;18.23;;;;;;;11.32;100.00;101763.34;5046520;28;20120;-66
2022/10/29 05:14:53;;;;;;;29.13;17.05;;;;;;;11.28;100.00;101760.66;5046924;28;20017;-66
2022/10/29 05:17:18;;;;;;;31.33;17.90;;;;;;;11.30;100.00;101758.91;5045129;28;20030;-65
2022/10/29 05:19:44;;;;;;;30.50;18.17;;;;;;;11.32;100.00;101751.88;5047881;28;20056;-65
2022/10/29 05:22:10;;;;;;;33.30;20.00;;;;;;;11.39;100.00;101745.81;5044476;28;20494;-65
2022/10/29 05:24:35;;;;;;;31.25;18.98;;;;;;;11.40;100.00;101750.25;5047396;28;20026;-66
2022/10/29 05:27:01;;;;;;;32.38;19.58;;;;;;;11.46;100.00;101750.34;5045787;28;20021;-65
2022/10/29 05:29:26;;;;;;;31.73;18.90;;;;;;;11.50;100.00;101752.19;5046216;28;20357;-65
2022/10/29 05:31:53;;;;;;;32.05;19.58;;;;;;;11.52;100.00;101745.13;5047169;28;20115;-66
2022/10/29 05:34:19;;;;;;;32.60;20.10;;;;;;;11.59;100.00;101742.56;5044621;28;20033;-65
2022/10/29 05:36:44;;;;;;;35.08;21.20;;;;;;;11.64;100.00;101739.13;5048115;28;20021;-66
2022/10/29 05:39:10;;;;;;;32.85;20.67;;;;;;;11.73;100.00;101734.84;5044435;28;20069;-65
2022/10/29 05:41:35;;;;;;;38.17;23.05;;;;;;;11.79;100.00;101737.56;5046661;28;20043;-65
2022/10/29 05:44:00;;;;;;;36.13;23.42;;;;;;;11.81;100.00;101736.72;5045852;28;20056;-65
2022/10/29 05:46:26;;;;;;;36.55;23.70;;;;;;;11.83;100.00;101736.72;5045511;28;20116;-67
2022/10/29 05:48:51;;;;;;;38.05;24.02;;;;;;;11.86;100.00;101734.13;5046959;28;20021;-66
2022/10/29 05:51:16;;;;;;;34.97;23.77;;;;;;;11.82;100.00;101729.66;5044116;28;20536;-67
2022/10/29 05:53:42;;;;;;;35.50;23.10;;;;;;;11.79;100.00;101730.50;5047483;28;20025;-66
2022/10/29 05:56:07;;;;;;;35.20;22.35;;;;;;;11.78;100.00;101726.09;5044205;28;20042;-66
2022/10/29 05:58:32;;;;;;;38.95;23.23;;;;;;;11.77;100.00;101723.41;5046379;28;20124;-66
2022/10/29 06:00:58;;;;;;;37.88;22.63;;;;;;;11.81;100.00;101726.13;5045496;28;20116;-67
2022/10/29 06:03:23;;;;;;;36.97;21.58;;;;;;;11.87;100.00;101720.03;5044561;28;20361;-66
2022/10/29 06:05:49;;;;;;;37.28;21.85;;;;;;;11.89;100.00;101722.69;5047019;28;20047;-66
2022/10/29 06:08:15;;;;;;;36.10;21.52;;;;;;;11.94;100.00;101721.00;5043500;28;20061;-67
2022/10/29 06:10:41;;;;;;;37.75;22.02;;;;;;;11.99;100.00;101719.31;5047232;28;20071;-67
2022/10/29 06:13:14;;;;;;;36.47;21.92;;;;;;;12.01;100.00;101729.06;5043183;28;20037;-67
2022/10/29 06:15:40;;;;;;;36.13;21.15;;;;;;;12.02;100.00;101729.94;5046669;28;20380;-67
2022/10/29 06:18:05;;;;;;;39.00;20.45;;;;;;;12.07;100.00;101730.00;5044179;28;20018;-68
2022/10/29 06:20:31;;;;;;;37.60;22.48;;;;;;;12.16;100.00;101751.34;5045376;28;20037;-67
2022/10/29 06:22:57;;;;;;;36.33;21.92;;;;;;;12.20;100.00;101739.88;5045276;28;20029;-67
2022/10/29 06:25:24;;;;;;;37.70;22.33;;;;;;;12.26;100.00;101741.69;5044323;28;20059;-67
2022/10/29 06:28:04;;;;;;;39.13;23.77;;;;;;;12.30;100.00;101751.47;5046458;28;20103;-66
2022/10/29 06:30:31;;;;;;;41.88;22.90;;;;;;;12.29;100.00;101747.03;5044922;28;20548;-67
2022/10/29 06:32:57;;;;;;;38.75;21.70;;;;;;;12.26;100.00;101744.34;5045181;28;20036;-66
2022/10/29 06:35:22;;;;;;;37.33;22.17;;;;;;;12.26;100.00;101747.00;5044300;28;20026;-69
2022/10/29 06:37:48;;;;;;;38.65;21.75;;;;;;;12.20;100.00;101743.44;5046135;28;20021;-69
2022/10/29 06:40:13;;;;;;;39.13;23.70;;;;;;;12.21;100.00;101747.84;5042907;28;20037;-69
2022/10/29 06:42:39;;;;;;;37.47;23.65;;;;;;;12.17;100.00;101746.06;5046130;28;20036;-69
2022/10/29 06:45:04;;;;;;;42.15;23.83;;;;;;;12.14;100.00;101740.69;5043856;28;20083;-69
2022/10/29 06:47:30;;;;;;;37.47;22.75;;;;;;;12.09;100.00;101742.41;5045021;28;20026;-70
2022/10/29 06:49:55;;;;;;;38.35;24.42;;;;;;;12.12;100.00;101750.38;5045530;28;20017;-69
2022/10/29 06:52:21;;;;;;;40.88;25.00;;;;;;;12.17;100.00;101740.75;5043277;28;20033;-69
2022/10/29 06:54:46;;;;;;;40.13;24.52;;;;;;;12.20;100.00;101745.16;5045977;28;20051;-68
2022/10/29 06:57:11;;;;;;;39.65;24.73;;;;;;;12.26;100.00;101749.66;5043182;28;20100;-69
2022/10/29 06:59:37;;;;;;;38.33;24.17;;;;;;;12.40;100.00;101758.66;5045491;28;20476;-68
2022/10/29 07:02:02;;;;;;;38.70;23.95;;;;;;;12.39;100.00;101754.22;5044159;28;20032;-68
2022/10/29 07:04:27;;;;;;;38.50;25.00;;;;;;;12.49;100.00;101756.09;5044088;28;20059;-69
2022/10/29 07:06:53;;;;;;;38.40;23.67;;;;;;;12.53;100.00;101763.22;5045124;28;20025;-69
2022/10/29 07:09:18;;;;;;;39.05;23.98;;;;;;;12.63;100.00;101758.03;5042784;28;20108;-69
2022/10/29 07:11:43;;;;;;;39.50;23.73;;;;;;;12.66;100.00;101750.09;5045868;28;20497;-70
2022/10/29 07:14:09;;;;;;;37.33;23.23;;;;;;;12.64;100.00;101742.13;5043147;28;20036;-69
2022/10/29 07:16:35;;;;;;;38.50;22.70;;;;;;;12.64;100.00;101739.47;5044805;28;20057;-69
2022/10/29 07:19:01;;;;;;;38.47;23.92;;;;;;;12.68;100.00;101736.00;5043878;28;20029;-69
2022/10/29 07:21:27;;;;;;;38.92;23.30;;;;;;;12.73;100.00;101736.03;5043334;28;20036;-69
2022/10/29 07:23:52;;;;;;;38.80;23.40;;;;;;;12.76;100.00;101729.88;5044672;28;20025;-69
2022/10/29 07:26:17;;;;;;;36.95;22.73;;;;;;;12.78;100.00;101729.00;5042433;28;20021;-67
2022/10/29 07:28:43;;;;;;;39.58;22.65;;;;;;;12.81;100.00;101715.75;5045536;28;20025;-67
2022/10/29 07:31:08;;;;;;;36.00;21.77;;;;;;;12.88;100.00;101717.56;5042918;28;20032;-67
2022/10/29 07:33:33;;;;;;;36.92;22.30;;;;;;;12.90;100.00;101720.25;5044262;28;20028;-67
2022/10/29 07:35:59;;;;;;;36.72;21.83;;;;;;;12.98;100.00;101721.22;5043753;28;20029;-67
2022/10/29 07:38:25;;;;;;;35.67;21.80;;;;;;;13.02;100.00;101722.13;5043221;28;20026;-66
2022/10/29 07:40:51;;;;;;;34.42;20.73;;;;;;;13.03;100.00;101718.59;5044939;28;20051;-67
2022/10/29 07:43:18;;;;;;;37.97;21.52;;;;;;;13.10;100.00;101714.22;5042291;28;20116;-67
2022/10/29 07:45:45;;;;;;;36.53;21.20;;;;;;;13.12;100.00;101718.69;5038155;28;20033;-67
2022/10/29 07:48:11;;;;;;;36.20;21.13;;;;;;;13.18;100.00;101710.75;5044877;28;20075;-66
2022/10/29 07:50:37;;;;;;;33.75;20.15;;;;;;;13.25;100.00;101716.97;5042767;28;20029;-67
2022/10/29 07:53:04;;;;;;;35.42;20.60;;;;;;;13.34;100.00;101710.84;5044131;28;20018;-67
2022/10/29 07:55:30;;;;;;;32.22;20.38;;;;;;;13.41;100.00;101716.25;5042970;28;20052;-67
2022/10/29 07:58:01;;;;;;;35.35;21.20;;;;;;;13.48;100.00;101727.78;5042899;28;20021;-67
2022/10/29 08:00:37;;;;;;;35.88;20.88;;;;;;;13.58;100.00;101718.13;5043745;28;20056;-67
2022/10/29 08:03:03;;;;;;;34.20;20.48;;;;;;;13.76;100.00;101728.84;5043765;28;20068;-67
2022/10/29 08:05:30;;;;;;;35.30;20.48;;;;;;;13.97;100.00;101726.31;5043501;28;20594;-67
2022/10/29 08:07:56;;;;;;;35.25;19.65;;;;;;;14.11;100.00;101720.16;5042481;28;20032;-65
2022/10/29 08:10:22;;;;;;;33.13;19.77;;;;;;;14.30;100.00;101714.91;5044195;28;20033;-65
2022/10/29 08:12:53;;;;;;;33.50;19.67;;;;;;;14.43;100.00;101719.34;5041330;28;20036;-65
2022/10/29 08:15:19;;;;;;;34.20;21.17;;;;;;;14.59;100.00;101712.28;5044696;28;20059;-65
2022/10/29 08:17:45;;;;;;;34.65;21.77;;;;;;;14.69;100.00;101709.66;5041133;28;20025;-65
2022/10/29 08:20:11;;;;;;;32.88;21.08;;;;;;;14.77;100.00;101716.78;5044064;28;20033;-66
2022/10/29 08:22:37;;;;;;;34.33;21.38;;;;;;;14.84;100.00;101700.78;5042032;28;20020;-65
2022/10/29 08:25:02;;;;;;;33.50;21.35;;;;;;;14.89;100.00;101702.56;5042945;28;20025;-65
2022/10/29 08:27:28;;;;;;;33.40;20.08;;;;;;;14.89;100.00;101696.38;5043217;28;20029;-66
2022/10/29 08:29:53;;;;;;;33.28;19.52;;;;;;;14.90;100.00;101690.19;5041877;28;20036;-66
2022/10/29 08:32:18;;;;;;;35.53;20.65;;;;;;;14.95;100.00;101699.91;5044296;28;20033;-66
2022/10/29 08:34:44;;;;;;;33.20;19.67;;;;;;;15.06;100.00;101701.72;5041247;28;20076;-65
2022/10/29 08:37:09;;;;;;;35.08;20.00;;;;;;;15.22;100.00;101703.47;5043449;28;20024;-65
2022/10/29 08:39:34;;;;;;;32.63;17.58;;;;;;;15.40;100.00;101712.31;5041865;28;20472;-66
2022/10/29 08:42:25;;;;;;;31.42;16.58;;;;;;;15.60;100.00;101715.81;5042240;28;20048;-65
2022/10/29 08:45:29;;;;;;;31.80;16.42;;;;;;;15.86;100.00;101722.88;5037978;28;20041;-65
2022/10/29 08:48:07;;;;;;;31.40;15.18;;;;;;;16.00;100.00;101699.72;5039222;28;20068;-66
2022/10/29 08:50:40;;;;;;;28.48;14.85;;;;;;;16.09;100.00;101711.22;5042221;28;20438;-65
2022/10/29 08:53:22;;;;;;;28.55;14.75;;;;;;;16.10;100.00;101702.31;5043298;28;20026;-65
2022/10/29 08:55:48;;;;;;;;;;;;;;;16.14;100.00;101706.75;5037565;28;20077;-66
2022/10/29 08:58:29;;;;;;;27.77;14.75;;;;;;;16.06;100.00;101697.91;5044548;28;19962;-65
2022/10/29 09:00:57;;;;;;;29.70;14.50;;;;;;;16.05;100.00;101702.34;5039089;28;20036;-65
2022/10/29 09:03:25;;;;;;;30.90;14.05;;;;;;;16.11;100.00;101696.09;5043664;28;20443;-65
2022/10/29 09:05:59;;;;;;;29.38;13.52;;;;;;;16.23;100.00;101696.03;5041105;28;20040;-66
2022/10/29 09:08:42;;;;;;;28.10;13.57;;;;;;;16.46;100.00;101692.34;5043367;28;20028;-66
2022/10/29 09:11:43;;;;;;;28.20;13.52;;;;;;;16.71;100.00;101688.56;5043582;28;20021;-67
2022/10/29 09:14:30;;;;;;;30.23;13.98;;;;;;;16.92;100.00;101686.69;5020729;28;20164;-67
2022/10/29 09:16:56;;;;;;;27.73;14.88;;;;;;;17.11;100.00;101697.19;5017282;28;20508;-67
2022/10/29 09:19:29;;;;;;;29.65;14.85;;;;;;;17.25;100.00;101687.25;5021552;28;20036;-67
2022/10/29 09:22:04;;;;;;;29.33;15.07;;;;;;;17.36;100.00;101695.19;5019361;28;20037;-68
2022/10/29 09:25:11;;;;;;;27.55;12.57;;;;;;;17.37;100.00;101702.28;5003231;28;20037;-68
2022/10/29 09:27:50;;;;;;;25.88;11.32;;;;;;;17.22;100.00;101700.66;5020734;28;20038;-67
2022/10/29 09:30:19;;;;;;;28.23;11.20;;;;;;;17.14;100.00;101689.13;5014928;28;20030;-67
2022/10/29 09:32:47;;;;;;;25.42;11.05;;;;;;;17.07;100.00;101677.66;5018469;28;20049;-67
2022/10/29 09:35:16;;;;;;;26.10;11.23;;;;;;;17.07;100.00;101675.84;5021679;28;20033;-66
2022/10/29 09:37:51;;;;;;;27.77;11.15;;;;;;;17.05;100.00;101690.09;5018760;28;20080;-67
2022/10/29 09:40:51;;;;;;;25.38;10.88;;;;;;;17.10;100.00;101679.41;5014636;28;20030;-67
2022/10/29 09:43:22;;;;;;;24.20;10.43;;;;;;;17.19;100.00;101681.97;4963406;28;20074;-67
2022/10/29 09:46:11;;;;;;;24.15;10.25;;;;;;;17.36;100.00;101684.50;4956658;28;20035;-67
2022/10/29 09:48:49;;;;;;;23.73;9.35;;;;;;;17.57;100.00;101675.34;4964445;28;20043;-67
2022/10/29 09:51:26;;;;;;;25.40;9.88;;;;;;;17.85;100.00;101670.53;4959482;28;20461;-67
2022/10/29 09:53:52;;;;;;;23.50;9.25;;;;;;;18.23;100.00;101658.47;4966204;28;20062;-68
2022/10/29 09:56:17;;;;;;;24.20;9.38;;;;;;;18.60;100.00;101654.34;4947115;29;20097;-67
2022/10/29 09:58:49;;;;;;;23.08;9.70;;;;;;;18.94;100.00;101657.34;4966683;28;20030;-67
2022/10/29 10:01:14;;;;;;;23.95;9.52;;;;;;;19.28;100.00;101655.81;4959248;28;20495;-66
2022/10/29 10:03:47;;;;;;;26.17;10.35;;;;;;;20.37;100.00;101652.66;4965888;28;20074;-65
2022/10/29 10:06:15;;;;;;;22.55;8.90;;;;;;;21.78;100.00;101663.31;4963469;28;20038;-65
2022/10/29 10:09:03;;;;;;;26.20;8.30;;;;;;;22.04;100.00;101656.25;4965912;28;20382;-66
2022/10/29 10:11:37;;;;;;;24.98;8.18;;;;;;;21.37;100.00;101662.66;4962488;28;20086;-66
2022/10/29 10:14:12;;;;;;;22.67;7.35;;;;;;;20.80;100.00;101648.94;4964360;28;20070;-66
2022/10/29 10:16:38;;;;;;;22.98;7.53;;;;;;;20.53;100.00;101654.06;4965537;28;20376;-66
2022/10/29 10:19:22;;;;;;;21.80;7.00;;;;;;;20.84;100.00;101647.94;4980626;28;20037;-66
2022/10/29 10:21:56;;;;;;;22.05;6.90;;;;;;;21.10;100.00;101650.84;5039868;28;20021;-66
2022/10/29 10:24:33;;;;;;;21.15;6.63;;;;;;;22.25;100.00;101657.38;5040617;28;20036;-65
2022/10/29 10:26:59;;;;;;;22.75;6.90;;;;;;;23.46;100.00;101648.81;5045527;28;20021;-66
2022/10/29 10:29:25;;;;;;;22.73;7.00;;;;;;;24.45;100.00;101650.41;5043982;28;20029;-66
2022/10/29 10:31:54;;;;;;;22.23;6.80;;;;;;;25.31;100.00;101657.63;5046786;28;20031;-66
2022/10/29 10:34:20;;;;;;;22.17;7.22;;;;;;;25.57;100.00;101647.41;5043103;28;20358;-66
2022/10/29 10:36:52;;;;;;;20.50;6.32;;;;;;;24.99;100.00;101640.06;5039254;28;20042;-66
2022/10/29 10:39:23;;;;;;;20.48;6.05;;;;;;;25.85;100.00;101644.31;5039895;28;20041;-66
2022/10/29 10:41:50;;;;;;;22.10;6.20;;;;;;;26.78;100.00;101646.13;5039775;28;20122;-66
2022/10/29 10:44:18;;;;;;;21.48;5.82;;;;;;;27.90;86.82;101637.47;5039256;28;20030;-66
2022/10/29 10:46:44;;;;;;;22.05;5.82;;;;;;;28.31;82.66;101645.13;5046438;28;20094;-66
2022/10/29 10:49:19;;;;;;;19.38;5.18;;;;;;;28.59;84.37;101633.53;5043602;28;20516;-66
2022/10/29 10:51:52;;;;;;;19.77;5.38;;;;;;;28.35;76.05;101635.84;5038607;28;20029;-66
2022/10/29 10:54:24;;;;;;;20.88;5.10;;;;;;;28.71;61.51;101625.63;5039112;28;20042;-66
2022/10/29 10:57:09;;;;;;;23.13;5.50;;;;;;;28.73;60.58;101620.97;5039603;28;20043;-65
2022/10/29 11:00:12;;;;;;;20.83;5.32;;;;;;;29.46;51.44;101620.13;5043461;28;20021;-65
2022/10/29 11:02:40;;;;;;;20.13;5.20;;;;;;;30.11;47.12;101622.31;5044229;28;20048;-65
2022/10/29 11:05:15;;;;;;;19.70;5.05;;;;;;;30.05;44.65;101614.56;5043697;28;20029;-66
2022/10/29 11:07:45;;;;;;;22.08;5.10;;;;;;;30.28;44.01;101623.06;5045302;28;20450;-66
2022/10/29 11:10:14;;;;;;;22.00;5.47;;;;;;;31.08;41.86;101623.09;5043236;28;20030;-66
2022/10/29 11:12:45;;;;;;;19.95;4.75;;;;;;;31.65;41.18;101624.50;5045000;28;20085;-67
2022/10/29 11:15:22;;;;;;;21.50;5.38;;;;;;;31.08;41.27;101617.63;5042989;28;20041;-67